sensor_id;sensor_type;location;lat;lon;timestamp;temperature;humidity
15543;DHT22;7873;52.230;12.856;2023-06-05T00:01:17;22.50;40.00
15543;DHT22;7873;52.230;12.856;2023-06-05T00:03:44;22.50;40.00
15543;DHT22;7873;52.230;12.856;2023-06-05T00:06:10;22.50;40.00
15543;DHT22;7873;52.230;12.856;2023-06-05T00:08:37;22.50;40.10
15543;DHT22;7873;52.230;12.856;2023-06-05T00:11:04;22.50;40.10
15543;DHT22;7873;52.230;12.856;2023-06-05T00:13:31;22.50;40.20
15543;DHT22;7873;52.230;12.856;2023-06-05T00:15:57;22.50;40.20
15543;DHT22;7873;52.230;12.856;2023-06-05T00:18:25;22.50;40.20
15543;DHT22;7873;52.230;12.856;2023-06-05T00:20:52;22.40;40.20
15543;DHT22;7873;52.230;12.856;2023-06-05T00:23:19;22.40;40.20
15543;DHT22;7873;52.230;12.856;2023-06-05T00:25:45;22.40;40.30
15543;DHT22;7873;52.230;12.856;2023-06-05T00:28:12;22.40;40.30
15543;DHT22;7873;52.230;12.856;2023-06-05T00:30:39;22.40;40.30
15543;DHT22;7873;52.230;12.856;2023-06-05T00:33:05;22.40;40.30
15543;DHT22;7873;52.230;12.856;2023-06-05T00:35:33;22.40;40.40
15543;DHT22;7873;52.230;12.856;2023-06-05T00:38:00;22.40;40.40
15543;DHT22;7873;52.230;12.856;2023-06-05T00:40:27;22.40;40.50
15543;DHT22;7873;52.230;12.856;2023-06-05T00:42:53;22.40;40.50
15543;DHT22;7873;52.230;12.856;2023-06-05T00:45:20;22.40;40.60
15543;DHT22;7873;52.230;12.856;2023-06-05T00:47:47;22.30;40.50
15543;DHT22;7873;52.230;12.856;2023-06-05T00:50:13;22.40;40.60
15543;DHT22;7873;52.230;12.856;2023-06-05T00:52:43;22.30;40.60
15543;DHT22;7873;52.230;12.856;2023-06-05T00:55:12;22.30;40.50
15543;DHT22;7873;52.230;12.856;2023-06-05T00:57:39;22.40;40.60
15543;DHT22;7873;52.230;12.856;2023-06-05T01:00:06;22.30;40.60
15543;DHT22;7873;52.230;12.856;2023-06-05T01:02:37;22.30;40.70
15543;DHT22;7873;52.230;12.856;2023-06-05T01:05:05;22.30;40.70
15543;DHT22;7873;52.230;12.856;2023-06-05T01:07:32;22.30;40.80
15543;DHT22;7873;52.230;12.856;2023-06-05T01:10:01;22.30;40.80
15543;DHT22;7873;52.230;12.856;2023-06-05T01:12:30;22.30;40.80
15543;DHT22;7873;52.230;12.856;2023-06-05T01:15:02;22.30;40.90
15543;DHT22;7873;52.230;12.856;2023-06-05T01:17:33;22.30;40.90
15543;DHT22;7873;52.230;12.856;2023-06-05T01:20:00;22.30;40.90
15543;DHT22;7873;52.230;12.856;2023-06-05T01:22:35;22.30;40.90
15543;DHT22;7873;52.230;12.856;2023-06-05T01:25:05;22.30;41.10
15543;DHT22;7873;52.230;12.856;2023-06-05T01:27:35;22.30;41.20
15543;DHT22;7873;52.230;12.856;2023-06-05T01:30:08;22.30;41.10
15543;DHT22;7873;52.230;12.856;2023-06-05T01:32:40;22.30;41.30
15543;DHT22;7873;52.230;12.856;2023-06-05T01:35:12;22.20;41.30
15543;DHT22;7873;52.230;12.856;2023-06-05T01:37:42;22.20;41.30
15543;DHT22;7873;52.230;12.856;2023-06-05T01:40:15;22.20;41.40
15543;DHT22;7873;52.230;12.856;2023-06-05T01:42:43;22.20;41.40
15543;DHT22;7873;52.230;12.856;2023-06-05T01:45:11;22.20;41.50
15543;DHT22;7873;52.230;12.856;2023-06-05T01:47:38;22.20;41.50
15543;DHT22;7873;52.230;12.856;2023-06-05T01:50:06;22.20;41.60
15543;DHT22;7873;52.230;12.856;2023-06-05T01:52:34;22.20;41.40
15543;DHT22;7873;52.230;12.856;2023-06-05T01:55:01;22.20;41.40
15543;DHT22;7873;52.230;12.856;2023-06-05T01:57:29;22.20;41.50
15543;DHT22;7873;52.230;12.856;2023-06-05T01:59:56;22.20;41.50
15543;DHT22;7873;52.230;12.856;2023-06-05T02:02:23;22.10;41.60
15543;DHT22;7873;52.230;12.856;2023-06-05T02:04:50;22.10;41.60
15543;DHT22;7873;52.230;12.856;2023-06-05T02:07:19;22.10;41.60
15543;DHT22;7873;52.230;12.856;2023-06-05T02:09:46;22.10;41.70
15543;DHT22;7873;52.230;12.856;2023-06-05T02:12:13;22.10;41.60
15543;DHT22;7873;52.230;12.856;2023-06-05T02:14:42;22.10;41.70
15543;DHT22;7873;52.230;12.856;2023-06-05T02:17:10;22.10;41.60
15543;DHT22;7873;52.230;12.856;2023-06-05T02:19:38;22.10;41.70
15543;DHT22;7873;52.230;12.856;2023-06-05T02:22:05;22.10;41.70
15543;DHT22;7873;52.230;12.856;2023-06-05T02:24:33;22.10;41.70
15543;DHT22;7873;52.230;12.856;2023-06-05T02:27:00;22.10;41.70
15543;DHT22;7873;52.230;12.856;2023-06-05T02:29:27;22.10;41.70
15543;DHT22;7873;52.230;12.856;2023-06-05T02:31:55;22.10;41.60
15543;DHT22;7873;52.230;12.856;2023-06-05T02:34:22;22.10;41.40
15543;DHT22;7873;52.230;12.856;2023-06-05T02:36:50;22.10;41.50
15543;DHT22;7873;52.230;12.856;2023-06-05T02:39:16;22.10;41.40
15543;DHT22;7873;52.230;12.856;2023-06-05T02:41:43;22.20;41.10
15543;DHT22;7873;52.230;12.856;2023-06-05T02:44:10;22.30;40.00
15543;DHT22;7873;52.230;12.856;2023-06-05T02:46:37;22.30;39.80
15543;DHT22;7873;52.230;12.856;2023-06-05T02:49:05;22.30;40.00
15543;DHT22;7873;52.230;12.856;2023-06-05T02:51:32;22.50;39.50
15543;DHT22;7873;52.230;12.856;2023-06-05T02:53:58;22.60;39.20
15543;DHT22;7873;52.230;12.856;2023-06-05T02:56:26;22.60;39.20
15543;DHT22;7873;52.230;12.856;2023-06-05T02:58:52;22.60;39.10
15543;DHT22;7873;52.230;12.856;2023-06-05T03:01:21;22.60;39.30
15543;DHT22;7873;52.230;12.856;2023-06-05T03:03:50;22.60;39.20
15543;DHT22;7873;52.230;12.856;2023-06-05T03:06:19;22.70;39.00
15543;DHT22;7873;52.230;12.856;2023-06-05T03:08:45;22.80;38.80
15543;DHT22;7873;52.230;12.856;2023-06-05T03:11:12;22.80;38.70
15543;DHT22;7873;52.230;12.856;2023-06-05T03:13:39;22.80;38.60
15543;DHT22;7873;52.230;12.856;2023-06-05T03:16:05;22.90;38.70
15543;DHT22;7873;52.230;12.856;2023-06-05T03:18:32;22.90;38.50
15543;DHT22;7873;52.230;12.856;2023-06-05T03:20:59;22.90;39.30
15543;DHT22;7873;52.230;12.856;2023-06-05T03:23:27;22.90;39.00
15543;DHT22;7873;52.230;12.856;2023-06-05T03:25:55;22.80;38.80
15543;DHT22;7873;52.230;12.856;2023-06-05T03:28:22;23.00;38.50
15543;DHT22;7873;52.230;12.856;2023-06-05T03:30:50;23.00;38.30
15543;DHT22;7873;52.230;12.856;2023-06-05T03:33:16;23.00;38.50
15543;DHT22;7873;52.230;12.856;2023-06-05T03:35:43;23.00;39.10
15543;DHT22;7873;52.230;12.856;2023-06-05T03:38:11;23.00;38.70
15543;DHT22;7873;52.230;12.856;2023-06-05T03:40:40;23.00;38.60
15543;DHT22;7873;52.230;12.856;2023-06-05T03:43:07;23.00;38.30
15543;DHT22;7873;52.230;12.856;2023-06-05T03:45:34;23.00;38.30
15543;DHT22;7873;52.230;12.856;2023-06-05T03:48:02;23.10;38.20
15543;DHT22;7873;52.230;12.856;2023-06-05T03:50:29;23.00;38.20
15543;DHT22;7873;52.230;12.856;2023-06-05T03:52:55;23.00;38.20
15543;DHT22;7873;52.230;12.856;2023-06-05T03:55:28;23.00;38.00
15543;DHT22;7873;52.230;12.856;2023-06-05T03:58:09;23.00;37.70
15543;DHT22;7873;52.230;12.856;2023-06-05T04:00:38;23.00;37.70
15543;DHT22;7873;52.230;12.856;2023-06-05T04:03:05;23.00;37.40
15543;DHT22;7873;52.230;12.856;2023-06-05T04:05:34;22.80;37.70
15543;DHT22;7873;52.230;12.856;2023-06-05T04:08:00;22.80;37.70
15543;DHT22;7873;52.230;12.856;2023-06-05T04:10:27;22.80;37.20
15543;DHT22;7873;52.230;12.856;2023-06-05T04:12:54;22.80;37.50
15543;DHT22;7873;52.230;12.856;2023-06-05T04:15:23;22.60;38.30
15543;DHT22;7873;52.230;12.856;2023-06-05T04:17:50;22.40;37.80
15543;DHT22;7873;52.230;12.856;2023-06-05T04:20:17;22.30;37.50
15543;DHT22;7873;52.230;12.856;2023-06-05T04:22:44;22.30;38.40
15543;DHT22;7873;52.230;12.856;2023-06-05T04:25:11;22.10;38.00
15543;DHT22;7873;52.230;12.856;2023-06-05T04:27:38;21.90;37.60
15543;DHT22;7873;52.230;12.856;2023-06-05T04:30:06;21.90;38.30
15543;DHT22;7873;52.230;12.856;2023-06-05T04:32:36;21.80;38.40
15543;DHT22;7873;52.230;12.856;2023-06-05T04:35:04;21.80;38.80
15543;DHT22;7873;52.230;12.856;2023-06-05T04:37:31;21.70;38.70
15543;DHT22;7873;52.230;12.856;2023-06-05T04:39:58;21.80;38.50
15543;DHT22;7873;52.230;12.856;2023-06-05T04:42:25;21.70;38.50
15543;DHT22;7873;52.230;12.856;2023-06-05T04:44:56;21.70;38.60
15543;DHT22;7873;52.230;12.856;2023-06-05T04:47:23;21.50;39.00
15543;DHT22;7873;52.230;12.856;2023-06-05T04:49:51;21.50;39.00
15543;DHT22;7873;52.230;12.856;2023-06-05T04:52:19;21.50;39.50
15543;DHT22;7873;52.230;12.856;2023-06-05T04:54:47;21.30;39.50
15543;DHT22;7873;52.230;12.856;2023-06-05T04:57:14;21.50;39.20
15543;DHT22;7873;52.230;12.856;2023-06-05T04:59:41;21.60;39.20
15543;DHT22;7873;52.230;12.856;2023-06-05T05:02:08;21.60;39.00
15543;DHT22;7873;52.230;12.856;2023-06-05T05:04:35;21.60;39.20
15543;DHT22;7873;52.230;12.856;2023-06-05T05:07:03;21.60;38.90
15543;DHT22;7873;52.230;12.856;2023-06-05T05:09:30;21.60;39.30
15543;DHT22;7873;52.230;12.856;2023-06-05T05:11:58;21.60;39.50
15543;DHT22;7873;52.230;12.856;2023-06-05T05:14:25;21.60;39.40
15543;DHT22;7873;52.230;12.856;2023-06-05T05:16:53;21.50;39.50
15543;DHT22;7873;52.230;12.856;2023-06-05T05:19:20;21.50;39.70
15543;DHT22;7873;52.230;12.856;2023-06-05T05:21:47;21.50;39.60
15543;DHT22;7873;52.230;12.856;2023-06-05T05:24:15;21.50;39.60
15543;DHT22;7873;52.230;12.856;2023-06-05T05:26:42;21.50;39.50
15543;DHT22;7873;52.230;12.856;2023-06-05T05:29:08;21.50;39.50
15543;DHT22;7873;52.230;12.856;2023-06-05T05:31:35;21.40;39.50
15543;DHT22;7873;52.230;12.856;2023-06-05T05:34:02;21.40;39.60
15543;DHT22;7873;52.230;12.856;2023-06-05T05:36:29;21.40;39.60
15543;DHT22;7873;52.230;12.856;2023-06-05T05:38:58;21.40;39.70
15543;DHT22;7873;52.230;12.856;2023-06-05T05:41:27;21.30;39.70
15543;DHT22;7873;52.230;12.856;2023-06-05T05:43:53;21.30;39.80
15543;DHT22;7873;52.230;12.856;2023-06-05T05:46:20;21.30;39.80
15543;DHT22;7873;52.230;12.856;2023-06-05T05:48:47;21.30;39.90
15543;DHT22;7873;52.230;12.856;2023-06-05T05:51:13;21.40;39.90
15543;DHT22;7873;52.230;12.856;2023-06-05T05:53:40;21.40;39.90
15543;DHT22;7873;52.230;12.856;2023-06-05T05:56:07;21.40;39.90
15543;DHT22;7873;52.230;12.856;2023-06-05T05:58:35;21.40;39.90
15543;DHT22;7873;52.230;12.856;2023-06-05T06:01:02;21.40;39.90
15543;DHT22;7873;52.230;12.856;2023-06-05T06:03:29;21.40;39.70
15543;DHT22;7873;52.230;12.856;2023-06-05T06:05:59;21.50;39.80
15543;DHT22;7873;52.230;12.856;2023-06-05T06:08:27;21.50;39.80
15543;DHT22;7873;52.230;12.856;2023-06-05T06:10:54;21.50;40.40
15543;DHT22;7873;52.230;12.856;2023-06-05T06:13:21;21.50;39.70
15543;DHT22;7873;52.230;12.856;2023-06-05T06:15:49;21.50;39.60
15543;DHT22;7873;52.230;12.856;2023-06-05T06:18:16;21.60;39.60
15543;DHT22;7873;52.230;12.856;2023-06-05T06:20:44;21.60;39.60
15543;DHT22;7873;52.230;12.856;2023-06-05T06:23:12;21.60;39.60
15543;DHT22;7873;52.230;12.856;2023-06-05T06:25:39;21.60;39.60
15543;DHT22;7873;52.230;12.856;2023-06-05T06:28:05;21.60;39.60
15543;DHT22;7873;52.230;12.856;2023-06-05T06:30:32;21.60;39.60
15543;DHT22;7873;52.230;12.856;2023-06-05T06:33:00;21.60;39.70
15543;DHT22;7873;52.230;12.856;2023-06-05T06:35:29;21.60;39.60
15543;DHT22;7873;52.230;12.856;2023-06-05T06:37:57;21.60;39.70
15543;DHT22;7873;52.230;12.856;2023-06-05T06:40:24;21.60;39.70
15543;DHT22;7873;52.230;12.856;2023-06-05T06:42:51;21.60;39.70
15543;DHT22;7873;52.230;12.856;2023-06-05T06:45:17;21.70;39.70
15543;DHT22;7873;52.230;12.856;2023-06-05T06:47:44;21.60;39.70
15543;DHT22;7873;52.230;12.856;2023-06-05T06:50:12;21.70;39.70
15543;DHT22;7873;52.230;12.856;2023-06-05T06:52:39;21.60;39.70
15543;DHT22;7873;52.230;12.856;2023-06-05T06:55:06;21.70;39.80
15543;DHT22;7873;52.230;12.856;2023-06-05T06:57:34;21.60;39.70
15543;DHT22;7873;52.230;12.856;2023-06-05T07:00:00;21.60;40.50
15543;DHT22;7873;52.230;12.856;2023-06-05T07:02:35;21.70;39.80
15543;DHT22;7873;52.230;12.856;2023-06-05T07:05:02;21.70;39.70
15543;DHT22;7873;52.230;12.856;2023-06-05T07:07:32;21.70;39.80
15543;DHT22;7873;52.230;12.856;2023-06-05T07:09:59;21.70;39.70
15543;DHT22;7873;52.230;12.856;2023-06-05T07:12:26;21.70;39.80
15543;DHT22;7873;52.230;12.856;2023-06-05T07:14:52;21.70;39.80
15543;DHT22;7873;52.230;12.856;2023-06-05T07:17:19;21.70;39.70
15543;DHT22;7873;52.230;12.856;2023-06-05T07:19:46;21.70;39.80
15543;DHT22;7873;52.230;12.856;2023-06-05T07:22:13;21.70;39.80
15543;DHT22;7873;52.230;12.856;2023-06-05T07:24:41;21.70;39.80
15543;DHT22;7873;52.230;12.856;2023-06-05T07:27:09;21.80;39.80
15543;DHT22;7873;52.230;12.856;2023-06-05T07:29:35;21.70;39.80
15543;DHT22;7873;52.230;12.856;2023-06-05T07:32:02;21.80;39.90
15543;DHT22;7873;52.230;12.856;2023-06-05T07:34:31;21.70;39.80
15543;DHT22;7873;52.230;12.856;2023-06-05T07:36:58;21.70;39.80
15543;DHT22;7873;52.230;12.856;2023-06-05T07:39:26;21.80;39.80
15543;DHT22;7873;52.230;12.856;2023-06-05T07:41:54;21.80;39.80
15543;DHT22;7873;52.230;12.856;2023-06-05T07:44:21;21.80;39.80
15543;DHT22;7873;52.230;12.856;2023-06-05T07:46:48;21.80;39.80
15543;DHT22;7873;52.230;12.856;2023-06-05T07:49:16;21.80;39.90
15543;DHT22;7873;52.230;12.856;2023-06-05T07:51:43;21.80;40.00
15543;DHT22;7873;52.230;12.856;2023-06-05T07:54:12;21.80;40.00
15543;DHT22;7873;52.230;12.856;2023-06-05T07:56:41;21.80;40.10
15543;DHT22;7873;52.230;12.856;2023-06-05T07:59:09;21.80;40.90
15543;DHT22;7873;52.230;12.856;2023-06-05T08:01:39;21.80;40.20
15543;DHT22;7873;52.230;12.856;2023-06-05T08:04:06;21.80;40.10
15543;DHT22;7873;52.230;12.856;2023-06-05T08:06:35;21.80;40.10
15543;DHT22;7873;52.230;12.856;2023-06-05T08:09:03;21.80;40.10
15543;DHT22;7873;52.230;12.856;2023-06-05T08:11:31;21.80;40.10
15543;DHT22;7873;52.230;12.856;2023-06-05T08:13:57;21.80;40.10
15543;DHT22;7873;52.230;12.856;2023-06-05T08:16:25;21.90;40.10
15543;DHT22;7873;52.230;12.856;2023-06-05T08:18:52;22.00;40.00
15543;DHT22;7873;52.230;12.856;2023-06-05T08:21:19;22.00;40.10
15543;DHT22;7873;52.230;12.856;2023-06-05T08:23:45;22.00;40.20
15543;DHT22;7873;52.230;12.856;2023-06-05T08:26:12;22.00;40.10
15543;DHT22;7873;52.230;12.856;2023-06-05T08:28:39;22.00;40.00
15543;DHT22;7873;52.230;12.856;2023-06-05T08:31:06;22.00;40.70
15543;DHT22;7873;52.230;12.856;2023-06-05T08:33:35;22.00;39.90
15543;DHT22;7873;52.230;12.856;2023-06-05T08:36:03;22.00;40.00
15543;DHT22;7873;52.230;12.856;2023-06-05T08:38:31;22.00;40.00
15543;DHT22;7873;52.230;12.856;2023-06-05T08:40:59;22.00;40.00
15543;DHT22;7873;52.230;12.856;2023-06-05T08:43:27;22.00;40.10
15543;DHT22;7873;52.230;12.856;2023-06-05T08:45:54;22.00;40.00
15543;DHT22;7873;52.230;12.856;2023-06-05T08:48:22;22.00;40.00
15543;DHT22;7873;52.230;12.856;2023-06-05T08:50:52;22.00;40.00
15543;DHT22;7873;52.230;12.856;2023-06-05T08:53:20;22.10;40.00
15543;DHT22;7873;52.230;12.856;2023-06-05T08:55:51;22.10;39.90
15543;DHT22;7873;52.230;12.856;2023-06-05T08:58:20;22.10;39.80
15543;DHT22;7873;52.230;12.856;2023-06-05T09:00:47;22.20;39.80
15543;DHT22;7873;52.230;12.856;2023-06-05T09:03:15;22.20;39.80
15543;DHT22;7873;52.230;12.856;2023-06-05T09:05:43;22.20;39.80
15543;DHT22;7873;52.230;12.856;2023-06-05T09:08:11;22.20;39.70
15543;DHT22;7873;52.230;12.856;2023-06-05T09:10:38;22.20;39.70
15543;DHT22;7873;52.230;12.856;2023-06-05T09:13:05;22.20;39.70
15543;DHT22;7873;52.230;12.856;2023-06-05T09:15:32;22.30;39.70
15543;DHT22;7873;52.230;12.856;2023-06-05T09:18:06;22.20;39.70
15543;DHT22;7873;52.230;12.856;2023-06-05T09:20:35;22.20;39.70
15543;DHT22;7873;52.230;12.856;2023-06-05T09:23:03;22.20;39.70
15543;DHT22;7873;52.230;12.856;2023-06-05T09:25:45;22.20;39.70
15543;DHT22;7873;52.230;12.856;2023-06-05T09:28:14;22.20;39.80
15543;DHT22;7873;52.230;12.856;2023-06-05T09:30:57;22.20;39.80
15543;DHT22;7873;52.230;12.856;2023-06-05T09:33:25;22.20;39.80
15543;DHT22;7873;52.230;12.856;2023-06-05T09:36:02;22.20;39.90
15543;DHT22;7873;52.230;12.856;2023-06-05T09:38:32;22.20;39.80
15543;DHT22;7873;52.230;12.856;2023-06-05T09:41:05;22.20;39.70
15543;DHT22;7873;52.230;12.856;2023-06-05T09:43:32;22.30;39.70
15543;DHT22;7873;52.230;12.856;2023-06-05T09:45:59;22.30;39.60
15543;DHT22;7873;52.230;12.856;2023-06-05T09:48:31;22.30;39.50
15543;DHT22;7873;52.230;12.856;2023-06-05T09:51:06;22.40;39.50
15543;DHT22;7873;52.230;12.856;2023-06-05T09:53:35;22.30;39.50
15543;DHT22;7873;52.230;12.856;2023-06-05T09:56:05;22.20;39.70
15543;DHT22;7873;52.230;12.856;2023-06-05T09:58:33;22.20;39.80
15543;DHT22;7873;52.230;12.856;2023-06-05T10:01:02;22.20;39.90
15543;DHT22;7873;52.230;12.856;2023-06-05T10:03:32;22.20;39.80
15543;DHT22;7873;52.230;12.856;2023-06-05T10:06:03;22.20;39.90
15543;DHT22;7873;52.230;12.856;2023-06-05T10:08:32;22.20;39.90
15543;DHT22;7873;52.230;12.856;2023-06-05T10:11:00;22.30;39.80
15543;DHT22;7873;52.230;12.856;2023-06-05T10:13:29;22.30;39.80
15543;DHT22;7873;52.230;12.856;2023-06-05T10:15:56;22.20;39.80
15543;DHT22;7873;52.230;12.856;2023-06-05T10:18:25;22.20;40.00
15543;DHT22;7873;52.230;12.856;2023-06-05T10:20:52;22.20;40.00
15543;DHT22;7873;52.230;12.856;2023-06-05T10:23:20;22.30;39.80
15543;DHT22;7873;52.230;12.856;2023-06-05T10:25:48;22.20;39.70
15543;DHT22;7873;52.230;12.856;2023-06-05T10:28:19;22.20;39.80
15543;DHT22;7873;52.230;12.856;2023-06-05T10:31:10;22.20;39.80
15543;DHT22;7873;52.230;12.856;2023-06-05T10:37:01;22.30;39.70
15543;DHT22;7873;52.230;12.856;2023-06-05T10:39:46;22.30;39.80
15543;DHT22;7873;52.230;12.856;2023-06-05T10:42:22;22.30;39.70
15543;DHT22;7873;52.230;12.856;2023-06-05T10:44:50;22.30;39.70
15543;DHT22;7873;52.230;12.856;2023-06-05T10:50:27;22.30;39.80
15543;DHT22;7873;52.230;12.856;2023-06-05T10:52:56;22.30;39.70
15543;DHT22;7873;52.230;12.856;2023-06-05T10:55:24;22.30;39.60
15543;DHT22;7873;52.230;12.856;2023-06-05T10:58:13;22.30;39.70
15543;DHT22;7873;52.230;12.856;2023-06-05T11:03:53;22.40;39.60
15543;DHT22;7873;52.230;12.856;2023-06-05T11:06:24;22.40;40.20
15543;DHT22;7873;52.230;12.856;2023-06-05T11:09:06;22.50;39.20
15543;DHT22;7873;52.230;12.856;2023-06-05T11:14:42;22.60;39.20
15543;DHT22;7873;52.230;12.856;2023-06-05T11:17:28;22.60;39.10
15543;DHT22;7873;52.230;12.856;2023-06-05T11:19:57;22.60;39.20
15543;DHT22;7873;52.230;12.856;2023-06-05T11:22:24;22.60;39.10
15543;DHT22;7873;52.230;12.856;2023-06-05T11:27:53;22.60;39.10
15543;DHT22;7873;52.230;12.856;2023-06-05T11:30:21;22.60;39.10
15543;DHT22;7873;52.230;12.856;2023-06-05T11:32:49;22.60;39.20
15543;DHT22;7873;52.230;12.856;2023-06-05T11:35:21;22.60;39.00
15543;DHT22;7873;52.230;12.856;2023-06-05T11:37:48;22.60;39.10
15543;DHT22;7873;52.230;12.856;2023-06-05T11:40:23;22.60;39.10
15543;DHT22;7873;52.230;12.856;2023-06-05T11:42:50;22.60;39.10
15543;DHT22;7873;52.230;12.856;2023-06-05T11:45:17;22.70;39.20
15543;DHT22;7873;52.230;12.856;2023-06-05T11:47:44;22.70;39.10
15543;DHT22;7873;52.230;12.856;2023-06-05T11:50:11;22.70;39.10
15543;DHT22;7873;52.230;12.856;2023-06-05T11:52:39;22.70;39.10
15543;DHT22;7873;52.230;12.856;2023-06-05T11:55:10;22.70;39.10
15543;DHT22;7873;52.230;12.856;2023-06-05T11:57:40;22.70;39.10
15543;DHT22;7873;52.230;12.856;2023-06-05T12:00:07;22.70;39.10
15543;DHT22;7873;52.230;12.856;2023-06-05T12:02:36;22.70;39.90
15543;DHT22;7873;52.230;12.856;2023-06-05T12:05:04;22.70;39.20
15543;DHT22;7873;52.230;12.856;2023-06-05T12:07:32;22.70;39.10
15543;DHT22;7873;52.230;12.856;2023-06-05T12:10:03;22.70;39.10
15543;DHT22;7873;52.230;12.856;2023-06-05T12:12:31;22.70;39.10
15543;DHT22;7873;52.230;12.856;2023-06-05T12:15:12;22.70;39.10
15543;DHT22;7873;52.230;12.856;2023-06-05T12:17:39;22.70;39.10
15543;DHT22;7873;52.230;12.856;2023-06-05T12:20:06;22.70;39.20
15543;DHT22;7873;52.230;12.856;2023-06-05T12:22:34;22.60;39.20
15543;DHT22;7873;52.230;12.856;2023-06-05T12:25:15;22.70;39.30
15543;DHT22;7873;52.230;12.856;2023-06-05T12:27:42;22.60;39.20
15543;DHT22;7873;52.230;12.856;2023-06-05T12:30:10;22.70;39.20
15543;DHT22;7873;52.230;12.856;2023-06-05T12:32:38;22.70;39.20
15543;DHT22;7873;52.230;12.856;2023-06-05T12:35:05;22.80;39.20
15543;DHT22;7873;52.230;12.856;2023-06-05T12:37:43;22.70;39.20
15543;DHT22;7873;52.230;12.856;2023-06-05T12:40:12;22.70;39.30
15543;DHT22;7873;52.230;12.856;2023-06-05T12:42:41;22.70;39.20
15543;DHT22;7873;52.230;12.856;2023-06-05T12:45:10;22.70;39.30
15543;DHT22;7873;52.230;12.856;2023-06-05T12:47:37;22.70;39.40
15543;DHT22;7873;52.230;12.856;2023-06-05T12:50:05;22.70;39.30
15543;DHT22;7873;52.230;12.856;2023-06-05T12:52:37;22.80;39.30
15543;DHT22;7873;52.230;12.856;2023-06-05T12:55:04;22.70;39.30
15543;DHT22;7873;52.230;12.856;2023-06-05T12:57:32;22.70;39.20
15543;DHT22;7873;52.230;12.856;2023-06-05T13:00:02;22.80;39.40
15543;DHT22;7873;52.230;12.856;2023-06-05T13:02:35;22.80;39.40
15543;DHT22;7873;52.230;12.856;2023-06-05T13:05:02;22.70;39.50
15543;DHT22;7873;52.230;12.856;2023-06-05T13:07:30;22.80;39.50
15543;DHT22;7873;52.230;12.856;2023-06-05T13:09:56;22.80;39.40
15543;DHT22;7873;52.230;12.856;2023-06-05T13:12:23;22.80;39.40
15543;DHT22;7873;52.230;12.856;2023-06-05T13:14:50;22.80;39.50
15543;DHT22;7873;52.230;12.856;2023-06-05T13:17:18;22.80;39.50
15543;DHT22;7873;52.230;12.856;2023-06-05T13:19:45;22.70;39.50
15543;DHT22;7873;52.230;12.856;2023-06-05T13:22:11;22.80;39.70
15543;DHT22;7873;52.230;12.856;2023-06-05T13:24:38;22.70;39.70
15543;DHT22;7873;52.230;12.856;2023-06-05T13:27:05;22.70;39.60
15543;DHT22;7873;52.230;12.856;2023-06-05T13:29:32;22.70;39.60
15543;DHT22;7873;52.230;12.856;2023-06-05T13:31:58;22.80;39.80
15543;DHT22;7873;52.230;12.856;2023-06-05T13:34:26;22.70;39.80
15543;DHT22;7873;52.230;12.856;2023-06-05T13:36:53;22.70;40.10
15543;DHT22;7873;52.230;12.856;2023-06-05T13:39:20;22.60;40.20
15543;DHT22;7873;52.230;12.856;2023-06-05T13:41:46;22.60;40.30
15543;DHT22;7873;52.230;12.856;2023-06-05T13:44:13;22.60;40.40
15543;DHT22;7873;52.230;12.856;2023-06-05T13:46:40;22.60;40.50
15543;DHT22;7873;52.230;12.856;2023-06-05T13:49:09;22.60;40.50
15543;DHT22;7873;52.230;12.856;2023-06-05T13:51:37;22.50;40.60
15543;DHT22;7873;52.230;12.856;2023-06-05T13:54:04;22.60;40.60
15543;DHT22;7873;52.230;12.856;2023-06-05T13:56:31;22.60;40.70
15543;DHT22;7873;52.230;12.856;2023-06-05T13:58:57;22.50;40.90
15543;DHT22;7873;52.230;12.856;2023-06-05T14:01:24;22.40;41.00
15543;DHT22;7873;52.230;12.856;2023-06-05T14:03:51;22.40;41.00
15543;DHT22;7873;52.230;12.856;2023-06-05T14:06:17;22.40;41.00
15543;DHT22;7873;52.230;12.856;2023-06-05T14:08:46;22.40;41.00
15543;DHT22;7873;52.230;12.856;2023-06-05T14:11:13;22.40;41.10
15543;DHT22;7873;52.230;12.856;2023-06-05T14:13:40;22.40;41.10
15543;DHT22;7873;52.230;12.856;2023-06-05T14:16:07;22.40;41.00
15543;DHT22;7873;52.230;12.856;2023-06-05T14:18:35;22.40;41.20
15543;DHT22;7873;52.230;12.856;2023-06-05T14:21:02;22.40;41.40
15543;DHT22;7873;52.230;12.856;2023-06-05T14:23:29;22.40;41.80
15543;DHT22;7873;52.230;12.856;2023-06-05T14:25:57;22.40;41.40
15543;DHT22;7873;52.230;12.856;2023-06-05T14:28:24;22.40;41.50
15543;DHT22;7873;52.230;12.856;2023-06-05T14:30:51;22.30;41.60
15543;DHT22;7873;52.230;12.856;2023-06-05T14:33:19;22.30;41.50
15543;DHT22;7873;52.230;12.856;2023-06-05T14:35:46;22.40;41.50
15543;DHT22;7873;52.230;12.856;2023-06-05T14:38:13;22.40;41.30
15543;DHT22;7873;52.230;12.856;2023-06-05T14:40:39;22.40;41.30
15543;DHT22;7873;52.230;12.856;2023-06-05T14:43:08;22.50;41.30
15543;DHT22;7873;52.230;12.856;2023-06-05T14:45:35;22.60;41.20
15543;DHT22;7873;52.230;12.856;2023-06-05T14:48:02;22.50;41.20
15543;DHT22;7873;52.230;12.856;2023-06-05T14:50:29;22.50;41.10
15543;DHT22;7873;52.230;12.856;2023-06-05T14:52:55;22.30;40.90
15543;DHT22;7873;52.230;12.856;2023-06-05T14:55:22;22.40;41.20
15543;DHT22;7873;52.230;12.856;2023-06-05T14:57:49;22.40;41.70
15543;DHT22;7873;52.230;12.856;2023-06-05T15:00:17;22.30;41.50
15543;DHT22;7873;52.230;12.856;2023-06-05T15:02:44;22.40;41.60
15543;DHT22;7873;52.230;12.856;2023-06-05T15:05:11;22.60;41.10
15543;DHT22;7873;52.230;12.856;2023-06-05T15:07:40;22.70;40.70
15543;DHT22;7873;52.230;12.856;2023-06-05T15:10:08;22.80;40.50
15543;DHT22;7873;52.230;12.856;2023-06-05T15:12:38;22.80;40.00
15543;DHT22;7873;52.230;12.856;2023-06-05T15:15:06;22.70;40.30
15543;DHT22;7873;52.230;12.856;2023-06-05T15:17:35;22.60;39.70
15543;DHT22;7873;52.230;12.856;2023-06-05T15:20:02;22.60;40.30
15543;DHT22;7873;52.230;12.856;2023-06-05T15:22:31;22.60;40.60
15543;DHT22;7873;52.230;12.856;2023-06-05T15:24:57;22.60;40.90
15543;DHT22;7873;52.230;12.856;2023-06-05T15:27:24;22.60;40.90
15543;DHT22;7873;52.230;12.856;2023-06-05T15:29:51;22.70;41.00
15543;DHT22;7873;52.230;12.856;2023-06-05T15:32:18;22.70;40.90
15543;DHT22;7873;52.230;12.856;2023-06-05T15:34:45;22.60;41.60
15543;DHT22;7873;52.230;12.856;2023-06-05T15:37:12;22.50;41.90
15543;DHT22;7873;52.230;12.856;2023-06-05T15:39:40;22.40;42.70
15543;DHT22;7873;52.230;12.856;2023-06-05T15:42:07;22.40;43.30
15543;DHT22;7873;52.230;12.856;2023-06-05T15:44:36;22.40;44.60
15543;DHT22;7873;52.230;12.856;2023-06-05T15:47:03;22.50;44.30
15543;DHT22;7873;52.230;12.856;2023-06-05T15:49:31;22.50;44.60
15543;DHT22;7873;52.230;12.856;2023-06-05T15:51:59;22.50;44.70